ADDS METAR Data INFO
IDs: Format: Raw Decoded Include TAF

Data at: 0924 UTC 13 Dec 2017

KUNI 130915Z AUTO 23006KT 10SM SCT048 M07/M12 A2993 RMK AO2 T10711125
KUNI 130855Z AUTO 26008KT 10SM OVC048 M06/M12 A2993 RMK AO2 T10641121
KUNI 130835Z AUTO 26010KT 10SM OVC050 M06/M12 A2994 RMK AO2 T10581120
KUNI 130815Z AUTO 27007KT 10SM OVC050 M06/M12 A2994 RMK AO2 T10581120
KUNI 130755Z AUTO 27009G14KT 10SM SCT043 OVC050 M06/M12 A2994 RMK AO2 T10571119
KUNI 130735Z AUTO 26009KT 10SM BKN040 OVC050 M06/M12 A2993 RMK AO2 T10561119
KUNI 130715Z AUTO 26004KT 10SM SCT037 OVC050 M06/M12 A2993 RMK AO2 T10571117
KUNI 130655Z AUTO 28008KT 10SM SCT037 OVC050 M06/M12 A2993 RMK AO2 T10561116
KUNI 130635Z AUTO 27009G14KT 10SM OVC050 M06/M12 A2993 RMK AO2 T10561120
KUNI 130615Z AUTO 28010G14KT 10SM OVC055 M06/M12 A2993 RMK AO2 T10571121
KUNI 130555Z AUTO 26011G15KT 10SM OVC055 M06/M12 A2992 RMK AO2 T10571116 11045 21060
KUNI 130535Z AUTO 27008KT 10SM OVC055 M06/M11 A2993 RMK AO2 T10571115
KUNI 130515Z AUTO 28008KT 10SM OVC065 M06/M11 A2993 RMK AO2 T10571114
KUNI 130455Z AUTO 27009KT 10SM OVC065 M06/M11 A2994 RMK AO2 T10581113
KUNI 130435Z AUTO 28010G15KT 10SM OVC065 M06/M11 A2994 RMK AO2 T10601111
KUNI 130415Z AUTO 28011KT 10SM OVC065 M06/M11 A2994 RMK AO2 T10601110
KUNI 130355Z AUTO 28013G17KT 10SM OVC065 M06/M11 A2994 RMK AO2 T10571110 400531060
KUNI 130335Z AUTO 29009KT 10SM BKN065 M06/M11 A2994 RMK AO2 T10571110
KUNI 130320Z AUTO 29011G15KT 10SM BKN065 M06/M11 A2994 RMK AO2 T10591109
KUNI 130255Z AUTO 27008G14KT 10SM BKN065 M06/M10 A2994 RMK AO2 T10591105
KUNI 130235Z AUTO 27012G15KT 10SM SCT032 BKN065 M06/M11 A2994 RMK AO2 T10601107
KUNI 130215Z AUTO 28012G19KT 10SM SCT032 BKN065 M06/M10 A2994 RMK AO2 T10571105
KUNI 130155Z AUTO 27009G15KT 10SM BKN034 BKN041 BKN065 M05/M10 A2994 RMK AO2 T10551104
KUNI 130140Z AUTO 29009G16KT 10SM SCT031 BKN038 OVC075 M05/M10 A2994 RMK AO2 T10531102
KUNI 130115Z AUTO 29011G22KT 10SM SCT026 SCT034 OVC075 M05/M10 A2994 RMK AO2 T10521103
KUNI 130055Z AUTO 29012G21KT 10SM SCT031 SCT037 OVC075 M05/M10 A2994 RMK AO2 T10501105
KUNI 130035Z AUTO 29012G19KT 10SM SCT029 SCT037 OVC075 M05/M10 A2994 RMK AO2 T10481100
KUNI 130015Z AUTO 28009G13KT 10SM SCT029 BKN041 OVC075 M05/M09 A2993 RMK AO2 T10471094
KUNI 122355Z AUTO 28009KT 10SM SCT043 SCT050 OVC075 M05/M10 A2992 RMK AO2 T10461097 11008 21048
KUNI 122335Z AUTO 29012G17KT 10SM OVC075 M05/M10 A2992 RMK AO2 T10461100
KUNI 122315Z AUTO 27011G14KT 10SM OVC075 M05/M10 A2991 RMK AO2 T10461101
KUNI 122255Z AUTO 28008KT 10SM BKN075 M05/M10 A2991 RMK AO2 T10481096
KUNI 122235Z AUTO 28011G17KT 10SM SCT039 SCT050 BKN075 M05/M10 A2990 RMK AO2 T10461102
KUNI 122215Z AUTO 28015G22KT 10SM SCT040 SCT049 BKN075 M04/M12 A2989 RMK AO2 T10401116
KUNI 122155Z AUTO 30012G21KT 10SM SCT055 SCT075 M04/M12 A2989 RMK AO2 T10401120
KUNI 122135Z AUTO 30011G19KT 10SM BKN065 M03/M12 A2989 RMK AO2 T10321125
KUNI 122115Z AUTO 31013G19KT 270V330 10SM SCT040 SCT048 BKN065 M03/M13 A2988 RMK AO2 T10301130
KUNI 122055Z AUTO 30013G23KT 10SM SCT033 SCT042 BKN050 M03/M13 A2987 RMK AO2 T10301126
KUNI 122035Z AUTO 32008KT 10SM BKN060 BKN070 M03/M12 A2986 RMK AO2 T10281122
KUNI 122015Z AUTO 30011G17KT 10SM SCT046 OVC060 M03/M12 A2987 RMK AO2 T10291118
KUNI 121955Z AUTO 30014G19KT 10SM SCT039 SCT050 OVC060 M03/M12 A2986 RMK AO2 T10291118
KUNI 121935Z AUTO 32016G24KT 10SM OVC055 M03/M12 A2986 RMK AO2 T10271119
KUNI 121915Z AUTO 28020G30KT 10SM BKN055 BKN065 M01/M13 A2984 RMK AO2 T10081127
KUNI 121855Z AUTO 29016G23KT 10SM SCT065 M02/M12 A2984 RMK AO2 T10171117
KUNI 121835Z AUTO 30014G26KT 10SM OVC065 M02/M11 A2984 RMK AO2 T10201112
KUNI 121815Z AUTO 32013G23KT 10SM SCT050 BKN065 M01/M11 A2984 RMK AO2 T10121107
KUNI 121755Z AUTO 32008G23KT 270V340 10SM BKN050 M01/M10 A2983 RMK AO2 T10141104 10010 21017
KUNI 121735Z AUTO 31009G18KT 10SM OVC050 M02/M10 A2984 RMK AO2 T10161101
KUNI 121715Z AUTO 30009G23KT 10SM BKN050 BKN080 M01/M10 A2984 RMK AO2 T10121096
KUNI 121655Z AUTO 31015G23KT 10SM SCT080 M01/M10 A2984 RMK AO2 T10111096
KUNI 121635Z AUTO 30013G24KT 250V320 10SM BKN080 M01/M07 A2984 RMK AO2 T10111073
KUNI 121615Z AUTO 30015G20KT 10SM SCT036 OVC080 M01/M06 A2984 RMK AO2 T10111064
KUNI 121555Z AUTO 30013G22KT 10SM SCT025 BKN033 OVC080 M01/M05 A2983 RMK AO2 T10121050
KUNI 121535Z AUTO 30009G15KT 10SM SCT018 BKN025 OVC080 M01/M04 A2983 RMK AO2 T10101043
KUNI 121515Z AUTO 31013G19KT 10SM -SN BKN018 BKN022 OVC042 M01/M03 A2982 RMK AO2 T10091035
KUNI 121455Z AUTO 31012G21KT 7SM -SN BKN018 BKN023 OVC038 00/M01 A2981 RMK AO2 T10041015
KUNI 121435Z AUTO 30011G16KT 4SM -SN SCT011 BKN014 OVC040 00/00 A2980 RMK AO2 T00000000
KUNI 121415Z AUTO 30007KT 1 1/2SM -SN BKN012 OVC019 00/00 A2979 RMK AO2 T00000000
KUNI 121355Z AUTO 28009G17KT 4SM -SN SCT009 BKN019 OVC039 00/00 A2978 RMK AO2 T00020000
KUNI 121335Z AUTO 31008KT 3SM -SN SCT009 OVC014 01/01 A2978 RMK AO2 T00070007
KUNI 121315Z AUTO 26010KT 3SM -SN OVC012 01/01 A2977 RMK AO2 T00060006
KUNI 121255Z AUTO 25007KT 4SM -SN BKN010 OVC015 01/01 A2977 RMK AO2 T00060006
KUNI 121235Z AUTO 27006KT 4SM -SN BKN013 OVC020 01/01 A2977 RMK AO2 T00080008
KUNI 121215Z AUTO 28008KT 4SM UP BKN015 OVC022 01/01 A2977 RMK AO2 T00080005
KUNI 121155Z AUTO 28011G17KT 4SM UP BKN016 OVC022 01/00 A2977 RMK AO2 T00100002 10053 20010
KUNI 121135Z AUTO 27012G19KT 4SM UP SCT014 OVC021 01/00 A2976 RMK AO2 T00120002
KUNI 121115Z AUTO 29014G20KT 4SM UP SCT014 BKN018 OVC023 02/01 A2975 RMK AO2 T00150007
KUNI 121055Z AUTO 28009G15KT 4SM UP SCT015 OVC026 02/01 A2974 RMK AO2 T00180007
KUNI 121035Z AUTO 28014KT 7SM OVC026 03/00 A2973 RMK AO2 T00291004
KUNI 121015Z AUTO 29016G21KT 10SM OVC028 04/M01 A2972 RMK AO2 T00371011
KUNI 120955Z AUTO 28009G19KT 10SM OVC032 04/M01 A2971 RMK AO2 T00421015
KUNI 120935Z AUTO 27014G20KT 10SM OVC034 05/M02 A2970 RMK AO2 T00451016
KUNI 120915Z AUTO 27016G21KT 10SM OVC038 05/M02 A2970 RMK AO2 T00501017
KUNI 120855Z AUTO 27017G22KT 10SM BKN038 BKN050 OVC060 05/M02 A2970 RMK AO2 T00501019
KUNI 120835Z AUTO 27014G18KT 10SM OVC050 05/M02 A2969 RMK AO2 T00511020
KUNI 120815Z AUTO 26011KT 10SM OVC048 05/M02 A2970 RMK AO2 T00521019
KUNI 120755Z AUTO 26013G17KT 10SM OVC044 05/M02 A2970 RMK AO2 T00531019
KUNI 120735Z AUTO 25008KT 10SM SCT044 OVC050 05/M01 A2969 RMK AO2 T00501015
KUNI 120715Z AUTO 23005KT 10SM SCT049 OVC060 05/M01 A2969 RMK AO2 T00481015
KUNI 120655Z AUTO 25007KT 10SM OVC060 05/M01 A2968 RMK AO2 T00481015
KUNI 120635Z AUTO 24003KT 10SM OVC060 04/M01 A2968 RMK AO2 T00421012
KUNI 120615Z AUTO 25004KT 10SM BKN060 OVC085 04/M01 A2968 RMK AO2 T00441013
KUNI 120555Z AUTO 25009G15KT 10SM BKN085 05/M02 A2967 RMK AO2 T00471016 10049 21016
KUNI 120535Z AUTO 23008KT 10SM SCT075 OVC085 05/M02 A2967 RMK AO2 T00491017
KUNI 120515Z AUTO 21006KT 10SM BKN075 OVC110 04/M02 A2967 RMK AO2 T00431018
KUNI 120455Z AUTO 21004KT 10SM SCT075 BKN110 01/M02 A2968 RMK AO2 T00091023
KUNI 120435Z AUTO 20004KT 10SM BKN120 02/M02 A2967 RMK AO2 T00181021
KUNI 120415Z AUTO 26003KT 10SM CLR M01/M02 A2967 RMK AO2 T10131024
KUNI 120355Z AUTO 28005KT 10SM CLR M01/M02 A2967 RMK AO2 T10141024 400581035
KUNI 120335Z AUTO 00000KT 10SM CLR M01/M03 A2968 RMK AO2 T10151026
KUNI 120315Z AUTO 00000KT 10SM CLR M01/M02 A2968 RMK AO2 T10061022
KUNI 120255Z AUTO 00000KT 10SM CLR M01/M02 A2969 RMK AO2 T10071021
KUNI 120235Z AUTO 00000KT 10SM CLR 00/M02 A2970 RMK AO2 T10041024
KUNI 120215Z AUTO 00000KT 10SM CLR 00/M02 A2971 RMK AO2 T00001021
KUNI 120155Z AUTO 00000KT 10SM CLR 00/M02 A2972 RMK AO2 T00021021
KUNI 120135Z AUTO 00000KT 10SM CLR 01/M02 A2973 RMK AO2 T00051021
KUNI 120115Z AUTO 00000KT 10SM CLR 01/M02 A2975 RMK AO2 T00101020
KUNI 120055Z AUTO 00000KT 10SM CLR 01/M02 A2976 RMK AO2 T00101021
KUNI 120035Z AUTO 00000KT 10SM CLR 00/M02 A2977 RMK AO2 T00031024
KUNI 120015Z AUTO 00000KT 10SM CLR 01/M02 A2976 RMK AO2 T00101025
KUNI 112355Z AUTO 00000KT 10SM CLR 02/M02 A2977 RMK AO2 T00191025 10058 20019
KUNI 112335Z AUTO 00000KT 10SM SCT120 02/M02 A2977 RMK AO2 T00231025
KUNI 112315Z AUTO 00000KT 10SM SCT120 02/M02 A2977 RMK AO2 T00231022
KUNI 112255Z AUTO 00000KT 10SM SCT120 03/M02 A2979 RMK AO2 T00291025
KUNI 112235Z AUTO 00000KT 10SM SCT120 03/M02 A2980 RMK AO2 T00311025
KUNI 112215Z AUTO 00000KT 10SM CLR 05/M03 A2981 RMK AO2 T00451031
KUNI 112155Z AUTO 12003KT 10SM CLR 05/M03 A2982 RMK AO2 T00471031
KUNI 112135Z AUTO 00000KT 10SM CLR 05/M03 A2985 RMK AO2 T00471028